Time;durP1;ratioP1;P1;durP2;ratioP2;P2;SDS_P1;SDS_P2;PMS_P1;PMS_P2;Temp;Humidity;BMP_temperature;BMP_pressure;BME280_temperature;BME280_humidity;BME280_pressure;Samples;Min_cycle;Max_cycle;Signal;HPM_P1;HPM_P2
2022/10/25 00:02:23;;;;;;;22.95;9.05;;;;;;;18.62;66.20;101083.72;4935415;29;20043;-72
2022/10/25 00:04:49;;;;;;;18.98;8.75;;;;;;;18.64;67.27;101078.81;4944489;29;20039;-74
2022/10/25 00:07:14;;;;;;;27.25;7.78;;;;;;;18.05;68.13;101090.16;4954123;28;20070;-73
2022/10/25 00:09:40;;;;;;;21.42;9.00;;;;;;;18.72;66.53;101092.72;4954388;28;20028;-73
2022/10/25 00:12:05;;;;;;;16.63;8.40;;;;;;;18.61;67.73;101084.84;4968014;28;20126;-72
2022/10/25 00:14:31;;;;;;;15.50;9.55;;;;;;;18.90;66.24;101085.91;4943527;29;20392;-72
2022/10/25 00:16:56;;;;;;;15.93;7.10;;;;;;;18.74;66.53;101090.53;4935383;29;20460;-72
2022/10/25 00:19:22;;;;;;;25.45;8.60;;;;;;;18.73;66.86;101088.09;4934385;29;20036;-72
2022/10/25 00:21:47;;;;;;;23.17;8.40;;;;;;;18.63;67.13;101086.19;4934812;29;20047;-73
2022/10/25 00:24:13;;;;;;;20.45;7.70;;;;;;;18.17;68.98;101087.19;4934844;29;20043;-72
2022/10/25 00:26:40;;;;;;;20.67;8.07;;;;;;;18.59;67.85;101095.19;4934891;29;20039;-72
2022/10/25 00:29:07;;;;;;;17.92;7.32;;;;;;;18.84;66.86;101097.88;4935488;29;20472;-72
2022/10/25 00:31:32;;;;;;;14.20;7.80;;;;;;;18.67;67.53;101095.44;4949328;29;20287;-73
2022/10/25 00:33:58;;;;;;;21.38;8.32;;;;;;;19.02;66.37;101103.59;4934899;29;20043;-73
2022/10/25 00:36:25;;;;;;;24.25;8.65;;;;;;;19.14;65.64;101103.31;4949110;28;20028;-72
2022/10/25 00:38:51;;;;;;;14.30;8.75;;;;;;;19.23;65.51;101101.66;4934634;29;20032;-73
2022/10/25 00:41:22;;;;;;;16.63;7.30;;;;;;;18.55;67.24;101104.97;4935379;29;20134;-73
2022/10/25 00:43:50;;;;;;;19.95;7.63;;;;;;;19.19;65.40;101106.00;4934731;29;20102;-74
2022/10/25 00:46:24;;;;;;;17.20;8.75;;;;;;;19.10;65.90;101113.13;4953668;28;20051;-73
2022/10/25 00:49:11;;;;;;;20.23;8.20;;;;;;;19.15;65.80;101111.19;4957622;28;20083;-74
2022/10/25 00:51:42;;;;;;;14.70;7.35;;;;;;;19.27;65.67;101117.19;4938115;28;20122;-74
2022/10/25 00:54:11;;;;;;;17.02;7.55;;;;;;;19.37;65.20;101115.53;4938343;29;20050;-72
2022/10/25 00:56:40;;;;;;;18.95;8.98;;;;;;;19.45;64.95;101115.81;4938554;29;20071;-74
2022/10/25 00:59:09;;;;;;;20.08;7.97;;;;;;;19.76;63.48;101124.69;4938911;29;20027;-73
2022/10/25 01:01:35;;;;;;;20.63;9.35;;;;;;;19.32;65.38;101129.16;4950486;29;20070;-73
2022/10/25 01:04:06;;;;;;;19.33;8.00;;;;;;;19.83;62.79;101125.22;4953025;29;20028;-72
2022/10/25 01:06:44;;;;;;;18.83;8.80;;;;;;;20.07;61.93;101123.44;4938114;29;20576;-74
2022/10/25 01:09:14;;;;;;;17.65;8.82;;;;;;;20.26;61.59;101116.28;4938607;29;20044;-72
2022/10/25 01:11:39;;;;;;;22.63;9.13;;;;;;;20.03;62.07;101122.38;4956019;28;20046;-73
2022/10/25 01:14:07;;;;;;;15.98;8.77;;;;;;;20.10;61.51;101121.00;4950460;28;20016;-73
2022/10/25 01:16:59;;;;;;;19.83;9.32;;;;;;;20.64;59.98;101128.28;4938115;29;20047;-72
2022/10/25 01:19:50;;;;;;;17.10;8.50;;;;;;;19.83;62.19;101131.47;4878585;29;20498;-74
2022/10/25 01:22:55;;;;;;;17.85;9.68;;;;;;;20.85;59.40;101129.78;4878959;29;20136;-72
2022/10/25 01:25:51;;;;;;;16.10;9.48;;;;;;;20.38;60.76;101135.03;4823240;29;20122;-72
2022/10/25 01:28:50;;;;;;;19.33;9.85;;;;;;;20.08;61.68;101128.63;4823305;29;20042;-74
2022/10/25 01:31:47;;;;;;;22.55;10.27;;;;;;;20.60;60.09;101119.06;4823053;29;20626;-74
2022/10/25 01:34:36;;;;;;;19.45;11.88;;;;;;;20.13;61.60;101134.06;4804995;29;20039;-73
2022/10/25 01:37:13;;;;;;;19.58;12.05;;;;;;;19.89;62.58;101143.19;4804804;29;20054;-75
2022/10/25 01:39:48;;;;;;;17.63;11.30;;;;;;;19.95;62.09;101142.88;4805339;29;20441;-74
2022/10/25 01:42:24;;;;;;;21.00;11.52;;;;;;;19.87;62.69;101138.00;4805201;29;20046;-72
2022/10/25 01:48:35;;;;;;;23.65;11.07;;;;;;;19.18;65.08;101139.81;4786293;29;20609;-73
2022/10/25 01:51:13;;;;;;;21.17;11.82;;;;;;;20.16;62.24;101132.69;4786749;30;20047;-73
2022/10/25 01:53:46;;;;;;;16.58;10.25;;;;;;;19.43;64.09;101142.53;4787152;29;20112;-73
2022/10/25 01:56:19;;;;;;;22.63;11.07;;;;;;;19.93;61.97;101139.59;4793860;29;20062;-73
2022/10/25 01:59:21;;;;;;;28.08;11.02;;;;;;;19.13;65.09;101137.06;4805032;29;20045;-73
2022/10/25 02:02:00;;;;;;;21.92;11.27;;;;;;;19.41;65.25;101144.69;4813945;29;20054;-73
2022/10/25 02:04:41;;;;;;;18.70;10.60;;;;;;;19.21;65.27;101139.25;4828588;29;20522;-74
2022/10/25 02:07:12;;;;;;;22.40;10.50;;;;;;;19.40;64.31;101143.06;4825402;29;20128;-74
2022/10/25 02:10:03;;;;;;;21.90;10.00;;;;;;;19.82;63.34;101138.03;4825246;29;20132;-73
2022/10/25 02:12:41;;;;;;;26.35;10.32;;;;;;;19.41;64.94;101132.97;4915427;29;20381;-74
2022/10/25 02:15:34;;;;;;;27.08;10.57;;;;;;;19.30;65.26;101132.16;4915719;29;20033;-74
2022/10/25 02:18:03;;;;;;;24.33;10.07;;;;;;;19.64;64.54;101126.91;4914683;29;20051;-72
2022/10/25 02:20:33;;;;;;;27.05;11.00;;;;;;;19.36;65.36;101138.44;4915511;29;20032;-74
2022/10/25 02:23:02;;;;;;;18.90;10.50;;;;;;;19.81;63.38;101133.66;4915866;29;20048;-74
2022/10/25 02:25:29;;;;;;;22.60;9.77;;;;;;;19.59;64.75;101129.66;4948524;29;20450;-74
2022/10/25 02:27:57;;;;;;;19.25;10.38;;;;;;;19.09;66.82;101127.81;4954561;28;20134;-73
2022/10/25 02:30:23;;;;;;;22.60;10.75;;;;;;;19.07;66.78;101130.81;4955897;28;20039;-75
2022/10/25 02:32:48;;;;;;;16.70;9.43;;;;;;;19.37;65.77;101137.34;4955895;28;20534;-74
2022/10/25 02:35:16;;;;;;;24.85;9.70;;;;;;;19.00;66.28;101130.31;4956275;28;20106;-73
2022/10/25 02:37:41;;;;;;;23.15;10.25;;;;;;;19.25;65.93;101130.25;4956000;28;20035;-74
2022/10/25 02:40:08;;;;;;;17.27;10.73;;;;;;;19.59;65.16;101137.84;4955429;28;20511;-73
2022/10/25 02:42:34;;;;;;;25.63;10.43;;;;;;;19.54;65.31;101132.38;4951266;28;20579;-73
2022/10/25 02:44:59;;;;;;;24.17;10.07;;;;;;;19.68;64.66;101128.81;4936536;29;20106;-73
2022/10/25 02:47:25;;;;;;;22.92;10.60;;;;;;;19.39;65.60;101132.44;4931783;29;20043;-73
2022/10/25 02:49:50;;;;;;;31.40;10.30;;;;;;;19.15;66.27;101143.91;4922412;29;20023;-73
2022/10/25 02:52:16;;;;;;;22.10;9.80;;;;;;;19.45;65.34;101140.34;4936614;29;20044;-73
2022/10/25 02:54:41;;;;;;;27.45;10.50;;;;;;;19.41;65.17;101138.44;4936419;29;20631;-74
2022/10/25 02:57:06;;;;;;;25.50;9.93;;;;;;;19.51;64.88;101143.84;4940829;29;20098;-74
2022/10/25 02:59:32;;;;;;;20.67;10.77;;;;;;;20.06;63.15;101136.28;4955515;28;20027;-74
2022/10/25 03:01:57;;;;;;;20.05;8.77;;;;;;;20.23;62.48;101138.66;4969953;28;20051;-73
2022/10/25 03:04:23;;;;;;;15.52;9.40;;;;;;;19.49;64.69;101144.13;4949363;28;20488;-73
2022/10/25 03:06:48;;;;;;;23.80;11.55;;;;;;;19.48;64.69;101160.78;4936262;29;20123;-74
2022/10/25 03:09:13;;;;;;;29.20;11.05;;;;;;;19.55;64.82;101159.41;4935252;29;20488;-73
2022/10/25 03:11:39;;;;;;;24.33;9.88;;;;;;;19.57;64.70;101165.38;4953438;28;20035;-74
2022/10/25 03:14:04;;;;;;;21.60;8.48;;;;;;;19.68;64.39;101172.44;4955262;29;20015;-73
2022/10/25 03:16:29;;;;;;;27.50;10.27;;;;;;;19.69;64.60;101175.97;4969316;28;20051;-72
2022/10/25 03:18:56;;;;;;;31.73;11.82;;;;;;;19.40;65.05;101183.16;4954958;28;20039;-73
2022/10/25 03:21:22;;;;;;;18.55;8.65;;;;;;;19.77;64.69;101176.22;4954896;28;20121;-72
2022/10/25 03:23:47;;;;;;;23.65;8.73;;;;;;;19.90;63.89;101189.28;4955142;28;20642;-74
2022/10/25 03:26:13;;;;;;;19.15;8.20;;;;;;;19.67;64.60;101180.91;4969828;28;20054;-74
2022/10/25 03:28:38;;;;;;;21.23;10.50;;;;;;;19.64;64.52;101182.25;4951811;28;20039;-73
2022/10/25 03:31:10;;;;;;;24.05;9.60;;;;;;;19.64;65.14;101178.72;4935426;29;20040;-73
2022/10/25 03:33:35;;;;;;;32.15;10.10;;;;;;;19.40;66.03;101186.66;4935323;29;20199;-74
2022/10/25 03:36:01;;;;;;;20.95;8.85;;;;;;;19.09;66.95;101198.66;4935397;29;20038;-73
2022/10/25 03:38:26;;;;;;;31.25;9.82;;;;;;;19.89;64.56;101205.94;4934582;29;20038;-73
2022/10/25 03:40:52;;;;;;;28.02;8.93;;;;;;;19.37;65.91;101200.84;4935678;29;20035;-75
2022/10/25 03:43:17;;;;;;;25.40;9.18;;;;;;;19.64;65.19;101208.69;4935059;29;20043;-75
2022/10/25 03:45:43;;;;;;;25.48;8.35;;;;;;;19.37;65.96;101206.31;4934817;29;20039;-74
2022/10/25 03:48:09;;;;;;;26.35;8.45;;;;;;;19.15;66.76;101211.19;4950234;28;20038;-74
2022/10/25 03:50:35;;;;;;;20.77;8.35;;;;;;;19.69;64.70;101216.88;4953574;28;20039;-72
2022/10/25 03:53:00;;;;;;;24.27;7.85;;;;;;;19.79;64.57;101214.94;4953934;28;20607;-73
2022/10/25 03:55:26;;;;;;;25.05;7.97;;;;;;;19.63;65.17;101220.72;4954030;28;20086;-77
2022/10/25 03:57:51;;;;;;;29.90;8.75;;;;;;;19.44;65.83;101225.13;4953812;28;20091;-73
2022/10/25 04:00:16;;;;;;;20.27;7.90;;;;;;;19.57;65.98;101233.53;4952462;29;20039;-74
2022/10/25 04:02:42;;;;;;;26.27;9.05;;;;;;;19.67;65.38;101227.25;4953813;28;20126;-74
2022/10/25 04:05:08;;;;;;;26.92;8.18;;;;;;;19.24;67.25;101223.19;4954695;29;20125;-76
2022/10/25 04:07:33;;;;;;;28.67;8.38;;;;;;;19.54;66.35;101225.91;4953848;28;20078;-73
2022/10/25 04:09:58;;;;;;;25.80;8.70;;;;;;;19.92;65.72;101224.47;4949866;28;20027;-74
2022/10/25 04:12:24;;;;;;;22.52;8.85;;;;;;;19.67;65.53;101217.16;4934741;29;20032;-74
2022/10/25 04:14:49;;;;;;;18.92;7.63;;;;;;;19.34;66.19;101231.38;4934482;29;20079;-73
2022/10/25 04:17:15;;;;;;;37.08;8.82;;;;;;;19.55;65.85;101235.72;4934602;29;20043;-73
2022/10/25 04:19:40;;;;;;;16.38;6.40;;;;;;;19.24;66.00;101234.09;4934058;29;20504;-73
2022/10/25 04:22:05;;;;;;;20.70;6.95;;;;;;;19.61;65.51;101242.81;4934410;29;20040;-74
2022/10/25 04:24:31;;;;;;;27.02;7.38;;;;;;;19.86;63.59;101242.75;4934232;29;20047;-73
2022/10/25 04:26:56;;;;;;;16.60;6.25;;;;;;;19.49;64.81;101250.47;4934704;29;20623;-72
2022/10/25 04:29:22;;;;;;;15.38;6.35;;;;;;;19.89;63.61;101244.91;4934532;29;20028;-71
2022/10/25 04:31:47;;;;;;;15.55;6.63;;;;;;;19.59;64.99;101241.44;4934909;29;20047;-71
2022/10/25 04:34:12;;;;;;;20.33;6.60;;;;;;;19.56;64.52;101240.06;4934294;29;20043;-73
2022/10/25 04:36:38;;;;;;;18.85;6.68;;;;;;;19.12;66.14;101239.78;4934185;29;20040;-72
2022/10/25 04:39:04;;;;;;;21.13;6.70;;;;;;;19.46;64.89;101250.19;4934458;29;20503;-74
2022/10/25 04:41:30;;;;;;;20.52;7.93;;;;;;;18.87;67.45;101250.66;4934127;29;20060;-73
2022/10/25 04:43:55;;;;;;;27.33;8.30;;;;;;;19.67;64.24;101257.25;4950049;29;20043;-73
2022/10/25 04:46:20;;;;;;;19.27;7.35;;;;;;;19.45;65.02;101251.28;4952239;28;20499;-73
2022/10/25 04:48:46;;;;;;;25.73;8.02;;;;;;;19.38;64.65;101258.91;4933779;29;20067;-73
2022/10/25 04:51:14;;;;;;;31.25;9.27;;;;;;;19.00;66.59;101252.88;4934355;29;20496;-73
2022/10/25 04:53:40;;;;;;;24.70;9.38;;;;;;;19.36;65.43;101253.72;4934106;29;20718;-72
2022/10/25 04:56:09;;;;;;;16.42;9.63;;;;;;;19.60;64.74;101262.16;4935022;29;20031;-72
2022/10/25 04:58:35;;;;;;;28.80;10.07;;;;;;;19.49;65.02;101255.09;4934461;29;20099;-73
2022/10/25 05:01:03;;;;;;;35.10;9.57;;;;;;;19.66;64.74;101267.34;4934026;29;20040;-74
2022/10/25 05:03:30;;;;;;;33.33;9.73;;;;;;;19.80;64.30;101281.22;4915944;29;20052;-74
2022/10/25 05:06:04;;;;;;;32.50;10.90;;;;;;;19.07;66.99;101277.09;4951278;28;20035;-74
2022/10/25 05:08:29;;;;;;;38.78;11.85;;;;;;;19.76;64.24;101280.13;4953461;28;20450;-73
2022/10/25 05:10:55;;;;;;;33.55;9.63;;;;;;;19.23;65.63;101284.22;4941908;29;20039;-74
2022/10/25 05:13:20;;;;;;;29.90;10.32;;;;;;;19.12;67.20;101291.56;4934127;29;20047;-72
2022/10/25 05:15:56;;;;;;;32.75;11.65;;;;;;;19.02;67.29;101294.28;4932804;29;20044;-72
2022/10/25 05:18:22;;;;;;;27.23;10.43;;;;;;;19.69;64.42;101288.63;4933709;29;20098;-73
2022/10/25 05:20:54;;;;;;;32.10;11.90;;;;;;;19.95;62.90;101287.47;4933954;29;20447;-73
2022/10/25 05:23:21;;;;;;;31.48;9.57;;;;;;;20.30;62.06;101296.69;4934512;29;20026;-72
2022/10/25 05:25:47;;;;;;;21.30;8.82;;;;;;;19.56;64.03;101285.59;4934221;29;20454;-72
2022/10/25 05:28:13;;;;;;;42.67;10.30;;;;;;;19.90;62.92;101286.66;4933931;29;20040;-73
2022/10/25 05:30:42;;;;;;;42.90;9.45;;;;;;;19.74;63.38;101290.50;4928692;29;20095;-72
2022/10/25 05:33:08;;;;;;;32.78;10.65;;;;;;;20.26;61.83;101292.88;4927526;29;20032;-73
2022/10/25 05:35:33;;;;;;;35.15;9.80;;;;;;;19.92;62.85;101295.38;4922487;29;20392;-73
2022/10/25 05:38:00;;;;;;;29.52;10.13;;;;;;;19.90;62.81;101297.56;4917792;29;20036;-73
2022/10/25 05:40:25;;;;;;;22.40;9.55;;;;;;;20.07;62.87;101303.53;4918748;29;20493;-74
2022/10/25 05:42:52;;;;;;;38.67;11.18;;;;;;;20.06;62.86;101301.91;4925045;29;20035;-72
2022/10/25 05:45:17;;;;;;;40.20;10.70;;;;;;;19.73;63.87;101310.69;4928247;29;20126;-73
2022/10/25 05:47:43;;;;;;;26.77;9.23;;;;;;;19.69;64.49;101309.59;4927384;29;20092;-74
2022/10/25 05:50:08;;;;;;;28.88;10.35;;;;;;;19.84;64.22;101304.94;4929831;29;20016;-74
2022/10/25 05:52:33;;;;;;;33.28;11.27;;;;;;;19.64;64.13;101310.41;4936901;29;20123;-73
2022/10/25 05:54:59;;;;;;;27.60;9.63;;;;;;;20.05;63.24;101320.19;4936578;29;20047;-74
2022/10/25 05:57:24;;;;;;;33.63;11.20;;;;;;;19.38;64.99;101314.22;4934235;29;20436;-72
2022/10/25 05:59:50;;;;;;;37.33;10.18;;;;;;;19.61;65.41;101312.88;4926892;29;20032;-75
2022/10/25 06:02:15;;;;;;;27.95;10.30;;;;;;;19.75;64.02;101316.69;4917683;29;20048;-73
2022/10/25 06:04:40;;;;;;;32.22;10.63;;;;;;;20.13;62.95;101324.25;4933690;29;20750;-73
2022/10/25 06:07:06;;;;;;;28.83;11.27;;;;;;;19.27;65.70;101328.91;4925374;29;20044;-73
2022/10/25 06:09:31;;;;;;;31.95;10.82;;;;;;;19.75;64.11;101331.13;4918506;29;20555;-74
2022/10/25 06:11:56;;;;;;;26.92;11.98;;;;;;;19.51;64.86;101340.13;4949095;28;20039;-74
2022/10/25 06:14:22;;;;;;;37.40;12.05;;;;;;;19.29;65.38;101332.19;4938521;28;20070;-74
2022/10/25 06:16:47;;;;;;;43.67;13.23;;;;;;;19.15;66.26;101342.78;4955998;28;20380;-73
2022/10/25 06:19:13;;;;;;;32.88;12.88;;;;;;;19.16;66.98;101338.16;4969756;28;20043;-74
2022/10/25 06:21:38;;;;;;;31.35;11.43;;;;;;;18.82;67.13;101354.13;4955527;28;20051;-74
2022/10/25 06:24:04;;;;;;;30.23;11.38;;;;;;;19.24;66.34;101349.34;4955615;28;20043;-75
2022/10/25 06:26:30;;;;;;;34.47;12.50;;;;;;;19.46;65.86;101357.31;4925173;28;20039;-74
2022/10/25 06:28:59;;;;;;;36.13;13.73;;;;;;;19.06;66.82;101349.03;4932625;29;20479;-75
2022/10/25 06:31:25;;;;;;;37.30;12.13;;;;;;;19.61;64.93;101349.16;4936206;29;20041;-73
2022/10/25 06:33:50;;;;;;;37.67;13.88;;;;;;;18.94;67.97;101356.63;4927869;29;20391;-74
2022/10/25 06:36:21;;;;;;;42.55;13.13;;;;;;;19.49;65.42;101356.78;4926347;29;20106;-74
2022/10/25 06:38:48;;;;;;;25.10;13.48;;;;;;;19.56;64.77;101361.94;4931686;29;20027;-73
2022/10/25 06:41:16;;;;;;;32.28;13.50;;;;;;;19.56;65.50;101353.75;4936573;29;20118;-74
2022/10/25 06:43:41;;;;;;;33.30;16.02;;;;;;;19.55;65.11;101357.59;4928181;29;20040;-75
2022/10/25 06:46:17;;;;;;;35.80;14.15;;;;;;;19.19;65.74;101364.88;4934981;29;20095;-74
2022/10/25 06:48:42;;;;;;;33.58;15.90;;;;;;;19.03;66.81;101368.63;4934526;29;20373;-74
2022/10/25 06:51:10;;;;;;;23.88;13.57;;;;;;;19.17;65.68;101361.59;4936433;29;20072;-75
2022/10/25 06:53:37;;;;;;;35.10;13.55;;;;;;;19.20;66.04;101372.75;4942122;28;20077;-73
2022/10/25 06:56:12;;;;;;;28.27;13.63;;;;;;;18.98;67.64;101365.91;4932864;29;20044;-72
2022/10/25 06:58:38;;;;;;;31.08;13.90;;;;;;;19.35;65.45;101388.38;4933669;29;20035;-73
2022/10/25 07:01:07;;;;;;;27.70;14.20;;;;;;;19.74;63.76;101386.78;4933861;29;20050;-73
2022/10/25 07:03:35;;;;;;;27.15;12.88;;;;;;;19.61;64.49;101390.06;4928277;29;20044;-73
2022/10/25 07:06:09;;;;;;;31.88;14.18;;;;;;;19.77;64.19;101388.94;4933533;29;20051;-74
2022/10/25 07:08:36;;;;;;;34.33;15.60;;;;;;;19.60;64.68;101388.41;4934521;29;20036;-73
2022/10/25 07:11:03;;;;;;;44.58;16.73;;;;;;;19.53;65.00;101395.22;4949166;28;20103;-74
2022/10/25 07:13:30;;;;;;;43.25;15.73;;;;;;;19.68;65.21;101393.31;4933869;29;20036;-74
2022/10/25 07:16:03;;;;;;;34.42;14.25;;;;;;;19.45;65.67;101404.75;4934333;29;20035;-73
2022/10/25 07:18:29;;;;;;;31.88;13.80;;;;;;;19.60;65.17;101404.75;4933759;29;20032;-76
2022/10/25 07:21:02;;;;;;;55.13;14.60;;;;;;;19.92;64.24;101394.41;4932057;29;20032;-75
2022/10/25 07:23:29;;;;;;;29.75;13.77;;;;;;;19.33;66.68;101404.16;4929205;29;20040;-73
2022/10/25 07:25:55;;;;;;;24.83;13.07;;;;;;;19.86;64.53;101414.59;4937404;29;20050;-74
2022/10/25 07:28:20;;;;;;;31.35;14.77;;;;;;;19.87;63.96;101412.69;4931612;29;20043;-75
2022/10/25 07:30:46;;;;;;;37.95;14.75;;;;;;;20.42;62.26;101412.66;4931611;29;20032;-77
2022/10/25 07:33:13;;;;;;;40.67;13.25;;;;;;;20.46;62.02;101412.94;4931832;29;20087;-75
2022/10/25 07:35:39;;;;;;;28.48;13.02;;;;;;;19.84;63.89;101415.97;4933763;29;20190;-73
2022/10/25 07:38:04;;;;;;;28.42;13.10;;;;;;;19.95;63.51;101414.88;4934006;29;20519;-72
2022/10/25 07:40:30;;;;;;;31.60;13.48;;;;;;;19.68;64.63;101412.41;4933983;29;20131;-75
2022/10/25 07:42:55;;;;;;;20.83;12.15;;;;;;;19.62;64.93;101412.66;4930485;29;20098;-74
2022/10/25 07:45:21;;;;;;;36.75;13.82;;;;;;;19.84;63.90;101419.50;4937897;28;20031;-75
2022/10/25 07:47:50;;;;;;;28.33;12.30;;;;;;;20.18;62.87;101414.31;4933559;29;20042;-74
2022/10/25 07:50:15;;;;;;;29.00;14.00;;;;;;;19.66;64.51;101427.41;4934841;29;20022;-74
2022/10/25 07:52:40;;;;;;;28.17;11.93;;;;;;;19.55;65.26;101428.47;4947755;28;20035;-74
2022/10/25 07:55:06;;;;;;;27.58;11.73;;;;;;;19.89;64.04;101433.13;4935651;29;20047;-73
2022/10/25 07:57:32;;;;;;;26.10;11.30;;;;;;;20.10;63.37;101425.78;4942336;28;20527;-73
2022/10/25 07:59:57;;;;;;;22.20;11.50;;;;;;;19.92;63.73;101435.34;4933300;29;20039;-74
2022/10/25 08:02:22;;;;;;;30.45;12.20;;;;;;;19.75;64.50;101440.22;4932369;29;20036;-74
2022/10/25 08:04:48;;;;;;;23.70;11.25;;;;;;;20.53;61.83;101448.97;4927535;29;20039;-73
2022/10/25 08:07:13;;;;;;;22.42;10.63;;;;;;;20.79;60.77;101445.91;4932465;29;20050;-72
2022/10/25 08:09:38;;;;;;;23.63;10.85;;;;;;;19.89;63.67;101452.25;4929578;29;20416;-71
2022/10/25 08:12:04;;;;;;;30.88;11.07;;;;;;;20.23;62.47;101446.25;4929094;29;20047;-72
2022/10/25 08:14:29;;;;;;;27.63;10.63;;;;;;;20.96;60.12;101443.66;4931959;29;20054;-73
2022/10/25 08:16:55;;;;;;;23.35;10.70;;;;;;;20.54;60.89;101445.16;4925667;29;20031;-70
2022/10/25 08:19:20;;;;;;;30.75;9.68;;;;;;;20.63;61.38;101452.50;4925845;29;20044;-72
2022/10/25 08:21:45;;;;;;;18.17;9.20;;;;;;;19.46;64.33;101466.34;4925889;29;20555;-71
2022/10/25 08:24:11;;;;;;;25.85;9.30;;;;;;;19.79;63.77;101468.59;4924307;29;20044;-72
2022/10/25 08:26:36;;;;;;;30.50;12.13;;;;;;;19.99;63.05;101475.97;4928699;29;20388;-73
2022/10/25 08:29:02;;;;;;;19.40;8.98;;;;;;;19.74;63.41;101478.69;4929867;29;20019;-70
2022/10/25 08:31:28;;;;;;;26.23;10.82;;;;;;;20.15;62.69;101483.91;4932658;29;20063;-71
2022/10/25 08:33:53;;;;;;;21.50;8.48;;;;;;;20.71;60.73;101490.19;4933736;29;20478;-72
2022/10/25 08:36:19;;;;;;;21.75;8.48;;;;;;;20.70;60.85;101483.06;4930934;29;20024;-71
2022/10/25 08:38:45;;;;;;;18.83;8.25;;;;;;;20.87;60.55;101483.56;4929937;29;20054;-70
2022/10/25 08:41:21;;;;;;;13.20;6.63;;;;;;;20.40;61.59;101493.22;4931081;29;20044;-70
2022/10/25 08:44:08;;;;;;;19.25;7.03;;;;;;;20.66;60.88;101486.59;4927313;29;20036;-71
2022/10/25 08:46:52;;;;;;;15.23;6.70;;;;;;;20.27;62.28;101483.66;4927762;29;20048;-74
2022/10/25 08:49:48;;;;;;;11.90;6.82;;;;;;;20.77;60.54;101480.06;4924885;29;20043;-72
2022/10/25 08:52:21;;;;;;;15.70;6.15;;;;;;;20.45;62.23;101483.09;4927809;29;20043;-72
2022/10/25 08:54:47;;;;;;;14.30;6.70;;;;;;;20.28;61.89;101495.41;4928152;29;20408;-70
2022/10/25 08:57:29;;;;;;;14.98;4.80;;;;;;;20.08;61.69;101498.91;4942867;28;20039;-72
2022/10/25 08:59:57;;;;;;;23.17;6.70;;;;;;;19.78;62.58;101496.13;4925911;29;20043;-73
2022/10/25 09:02:43;;;;;;;19.65;5.03;;;;;;;20.37;61.94;101508.22;4927430;29;20036;-73
2022/10/25 09:05:22;;;;;;;14.15;4.57;;;;;;;20.54;60.70;101514.22;4925600;29;20027;-69
2022/10/25 09:08:29;;;;;;;15.18;5.32;;;;;;;19.73;63.36;101520.69;4929378;29;20051;-74
2022/10/25 09:11:06;;;;;;;16.10;4.75;;;;;;;20.57;60.19;101538.25;4908623;28;20059;-71
2022/10/25 09:14:02;;;;;;;16.45;4.40;;;;;;;21.20;58.22;101536.78;4927580;29;20460;-70
2022/10/25 09:16:50;;;;;;;12.93;4.68;;;;;;;20.11;61.89;101537.41;4913057;29;20040;-72
2022/10/25 09:19:33;;;;;;;22.42;6.35;;;;;;;20.36;60.76;101536.63;4921754;29;20036;-72
2022/10/25 09:22:09;;;;;;;10.05;4.50;;;;;;;20.55;60.45;101539.63;4932783;29;20036;-73
2022/10/25 09:24:48;;;;;;;12.88;4.60;;;;;;;20.42;60.27;101553.84;4932409;29;20583;-73
2022/10/25 09:27:34;;;;;;;16.55;5.35;;;;;;;19.84;62.16;101552.34;4932483;29;20062;-74
2022/10/25 09:30:06;;;;;;;13.00;4.95;;;;;;;20.15;61.61;101548.59;4932790;29;20131;-72
2022/10/25 09:32:48;;;;;;;16.92;5.55;;;;;;;20.65;60.38;101547.81;4922427;29;20040;-72
2022/10/25 09:35:26;;;;;;;8.85;3.78;;;;;;;21.23;57.94;101562.75;4912705;29;20127;-72
2022/10/25 09:38:00;;;;;;;13.65;3.85;;;;;;;20.62;59.92;101556.53;4912043;29;20052;-72
2022/10/25 09:40:38;;;;;;;12.18;3.92;;;;;;;20.94;58.56;101551.59;4910429;29;20044;-73
2022/10/25 09:43:13;;;;;;;15.00;4.03;;;;;;;20.56;59.46;101549.47;4909801;29;20044;-75
2022/10/25 09:45:54;;;;;;;12.13;3.83;;;;;;;20.01;61.24;101570.13;4912634;29;20043;-72
2022/10/25 09:48:24;;;;;;;14.02;4.45;;;;;;;19.87;62.05;101552.63;4908931;29;20039;-72
2022/10/25 09:50:59;;;;;;;8.90;3.42;;;;;;;20.62;60.16;101553.81;4919416;29;20035;-74
2022/10/25 09:53:24;;;;;;;15.73;5.80;;;;;;;20.86;58.43;101563.91;4923399;29;20056;-72
2022/10/25 09:55:53;;;;;;;15.10;4.15;;;;;;;20.50;59.34;101554.09;4935198;29;20043;-72
2022/10/25 09:58:30;;;;;;;13.57;4.43;;;;;;;21.16;57.88;101548.56;4931676;29;20035;-73
2022/10/25 10:01:11;;;;;;;15.25;4.00;;;;;;;20.50;59.88;101562.28;4932650;29;20515;-74
2022/10/25 10:03:36;;;;;;;13.70;4.00;;;;;;;20.45;59.70;101561.47;4934146;29;20789;-72
2022/10/25 10:06:19;;;;;;;13.32;3.47;;;;;;;21.10;56.69;101555.97;4931833;29;20091;-70
2022/10/25 10:08:50;;;;;;;11.35;3.60;;;;;;;20.87;57.60;101565.53;4928169;29;20275;-70
2022/10/25 10:11:17;;;;;;;;;;;;;;;21.09;56.92;101562.50;4935214;29;20034;-73
2022/10/25 10:13:47;;;;;;;14.00;4.85;;;;;;;20.96;57.12;101569.34;4934202;29;19919;-73
2022/10/25 10:16:27;;;;;;;12.18;3.42;;;;;;;21.62;56.13;101574.66;4931139;29;20125;-72
2022/10/25 10:19:14;;;;;;;11.75;3.85;;;;;;;22.04;55.25;101563.19;4927077;29;20520;-72
2022/10/25 10:21:55;;;;;;;13.18;2.85;;;;;;;21.26;56.78;101571.22;4929485;29;20521;-72
2022/10/25 10:24:24;;;;;;;9.85;2.85;;;;;;;20.86;57.87;101574.81;4931887;29;20526;-72
2022/10/25 10:26:54;;;;;;;8.95;3.78;;;;;;;21.30;56.91;101566.84;4927254;29;20028;-72
2022/10/25 10:29:22;;;;;;;6.60;3.00;;;;;;;21.35;56.22;101585.94;4933727;29;20043;-72
2022/10/25 10:31:53;;;;;;;13.10;3.33;;;;;;;21.55;55.03;101577.66;4932095;29;20412;-73
2022/10/25 10:34:28;;;;;;;14.00;4.05;;;;;;;21.26;55.91;101586.81;4927838;29;20035;-71
2022/10/25 10:37:04;;;;;;;7.93;2.47;;;;;;;21.70;55.24;101584.97;4931404;29;20036;-71
2022/10/25 10:39:30;;;;;;;9.98;3.28;;;;;;;22.01;53.93;101583.78;4928511;29;20044;-73
2022/10/25 10:42:14;;;;;;;9.30;2.78;;;;;;;22.55;53.42;101580.91;4930936;29;20039;-72
2022/10/25 10:44:39;;;;;;;9.90;3.05;;;;;;;22.94;52.35;101584.41;4943877;28;20032;-74
2022/10/25 10:47:19;;;;;;;13.35;3.63;;;;;;;23.15;50.99;101587.78;4930723;29;20098;-74
2022/10/25 10:49:45;;;;;;;11.65;3.28;;;;;;;22.47;53.20;101587.81;4933052;29;20035;-73
2022/10/25 10:52:44;;;;;;;13.60;2.75;;;;;;;22.92;51.71;101592.09;4930609;29;20046;-74
2022/10/25 10:55:26;;;;;;;12.38;2.47;;;;;;;21.92;53.78;101590.09;4910782;29;20075;-73
2022/10/25 10:57:54;;;;;;;16.23;3.97;;;;;;;22.14;53.09;101596.81;4905331;29;20055;-74
2022/10/25 11:00:26;;;;;;;9.00;2.45;;;;;;;21.10;55.63;101594.22;4910045;29;20036;-74
2022/10/25 11:02:51;;;;;;;12.40;3.70;;;;;;;21.60;54.23;101594.06;4909765;29;20544;-74
2022/10/25 11:05:24;;;;;;;9.48;2.35;;;;;;;21.35;54.49;101596.06;4910929;29;21243;-72
2022/10/25 11:07:56;;;;;;;9.45;2.40;;;;;;;21.37;55.00;101591.97;4904672;29;20060;-73
2022/10/25 11:10:33;;;;;;;11.80;3.03;;;;;;;21.34;54.24;101602.63;4911100;29;20059;-73
2022/10/25 11:13:07;;;;;;;14.15;2.78;;;;;;;21.41;54.20;101600.41;4910734;29;20036;-73
2022/10/25 11:15:39;;;;;;;8.85;2.35;;;;;;;21.49;53.32;101605.31;4895668;29;20040;-73
2022/10/25 11:18:06;;;;;;;11.18;2.08;;;;;;;21.34;54.43;101619.88;4915294;29;20047;-74
2022/10/25 11:20:46;;;;;;;9.85;2.05;;;;;;;21.30;54.43;101613.31;4911213;29;20040;-73
2022/10/25 11:23:49;;;;;;;8.30;2.40;;;;;;;20.96;55.58;101620.44;4909755;29;20051;-73
2022/10/25 11:26:36;;;;;;;11.25;2.67;;;;;;;20.70;56.72;101624.28;4911456;29;20127;-74
2022/10/25 11:29:14;;;;;;;11.00;2.28;;;;;;;21.68;53.92;101620.84;4910403;29;20083;-71
2022/10/25 11:32:14;;;;;;;4.03;2.45;;;;;;;21.16;54.58;101628.66;4922917;29;20039;-72
2022/10/25 11:34:52;;;;;;;7.72;2.58;;;;;;;21.15;55.54;101621.53;4886411;29;20037;-72